createdAt,value
2023-02-14T00:01:09.072Z,3.30
2023-02-14T00:03:37.863Z,3.24
2023-02-14T00:06:12.233Z,3.27
2023-02-14T00:08:40.930Z,3.23
2023-02-14T00:11:08.914Z,3.18
2023-02-14T00:13:35.388Z,3.18
2023-02-14T00:16:01.908Z,3.16
2023-02-14T00:18:48.314Z,3.13
2023-02-14T00:21:14.965Z,3.07
2023-02-14T00:23:43.421Z,3.05
2023-02-14T00:26:17.086Z,3.02
2023-02-14T00:28:43.491Z,3.01
2023-02-14T00:31:10.065Z,2.98
2023-02-14T00:33:36.875Z,2.97
2023-02-14T00:36:06.864Z,2.92
2023-02-14T00:38:33.806Z,2.94
2023-02-14T00:41:00.529Z,2.93
2023-02-14T00:43:27.066Z,2.89
2023-02-14T00:45:53.513Z,2.87
2023-02-14T00:48:20.943Z,2.84
2023-02-14T00:50:47.336Z,2.81
2023-02-14T00:53:15.778Z,2.80
2023-02-14T00:55:45.637Z,2.77
2023-02-14T00:58:13.217Z,2.77
2023-02-14T01:00:39.698Z,2.72
2023-02-14T01:03:06.134Z,2.69
2023-02-14T01:05:33.639Z,2.62
2023-02-14T01:08:00.005Z,2.59
2023-02-14T01:10:26.401Z,2.54
2023-02-14T01:12:52.787Z,2.53
2023-02-14T01:15:27.923Z,2.52
2023-02-14T01:17:54.300Z,2.50
2023-02-14T01:20:20.683Z,2.46
2023-02-14T01:22:47.135Z,2.47
2023-02-14T01:25:14.592Z,2.42
2023-02-14T01:27:41.105Z,2.39
2023-02-14T01:30:08.323Z,2.36
2023-02-14T01:32:38.857Z,2.30
2023-02-14T01:35:05.500Z,2.25
2023-02-14T01:37:32.996Z,2.19
2023-02-14T01:39:59.671Z,2.21
2023-02-14T01:42:26.309Z,2.15
2023-02-14T01:44:56.705Z,2.10
2023-02-14T01:47:24.319Z,2.07
2023-02-14T01:49:55.821Z,2.06
2023-02-14T01:52:27.955Z,2.06
2023-02-14T01:54:59.449Z,2.05
2023-02-14T01:57:31.837Z,2.00
2023-02-14T02:00:20.292Z,2.00
2023-02-14T02:02:47.104Z,1.98
2023-02-14T02:05:15.799Z,1.94
2023-02-14T02:07:42.717Z,1.94
2023-02-14T02:10:16.336Z,1.88
2023-02-14T02:12:50.474Z,1.85
2023-02-14T02:15:17.010Z,1.86
2023-02-14T02:18:09.284Z,1.89
2023-02-14T02:21:03.246Z,1.87
2023-02-14T02:23:38.687Z,1.83
2023-02-14T02:26:26.286Z,1.79
2023-02-14T02:28:55.759Z,1.79
2023-02-14T02:31:51.057Z,1.81
2023-02-14T02:35:01.486Z,1.81
2023-02-14T02:37:56.576Z,1.79
2023-02-14T02:40:42.708Z,1.80
2023-02-14T02:43:50.135Z,1.77
2023-02-14T02:46:41.754Z,1.79
2023-02-14T02:49:59.065Z,1.77
2023-02-14T02:53:03.724Z,1.76
2023-02-14T02:56:17.788Z,1.73
2023-02-14T02:58:54.459Z,1.69
2023-02-14T03:01:26.278Z,1.65
2023-02-14T03:04:18.993Z,1.67
2023-02-14T03:06:50.703Z,1.67
2023-02-14T03:09:20.101Z,1.66
2023-02-14T03:12:10.667Z,1.61
2023-02-14T03:14:50.058Z,1.60
2023-02-14T03:17:28.807Z,1.63
2023-02-14T03:20:14.749Z,1.64
2023-02-14T03:22:54.575Z,1.63
2023-02-14T03:25:39.481Z,1.67
2023-02-14T03:28:45.729Z,1.65
2023-02-14T03:31:38.485Z,1.59
2023-02-14T03:34:15.146Z,1.63
2023-02-14T03:36:52.389Z,1.63
2023-02-14T03:39:51.535Z,1.64
2023-02-14T03:42:30.505Z,1.62
2023-02-14T03:45:00.394Z,1.62
2023-02-14T03:47:32.530Z,1.62
2023-02-14T03:50:11.111Z,1.63
2023-02-14T03:52:39.029Z,1.60
2023-02-14T03:55:07.683Z,1.57
2023-02-14T03:57:54.323Z,1.59
2023-02-14T04:00:20.958Z,1.59
2023-02-14T04:03:02.057Z,1.57
2023-02-14T04:05:28.599Z,1.53
2023-02-14T04:07:57.632Z,1.53
2023-02-14T04:10:24.894Z,1.55
2023-02-14T04:12:52.698Z,1.53
2023-02-14T04:15:19.155Z,1.52
2023-02-14T04:18:03.980Z,1.49
2023-02-14T04:20:30.596Z,1.48
2023-02-14T04:22:57.613Z,1.43
2023-02-14T04:25:31.201Z,1.40
2023-02-14T04:27:57.653Z,1.38
2023-02-14T04:30:24.121Z,1.34
2023-02-14T04:32:50.660Z,1.27
2023-02-14T04:35:17.174Z,1.30
2023-02-14T04:37:43.582Z,1.31
2023-02-14T04:40:10.669Z,1.30
2023-02-14T04:42:37.055Z,1.27
2023-02-14T04:45:04.427Z,1.24
2023-02-14T04:47:31.038Z,1.22
2023-02-14T04:49:57.628Z,1.22
2023-02-14T04:52:24.039Z,1.20
2023-02-14T04:54:50.405Z,1.16
2023-02-14T04:57:16.798Z,1.17
2023-02-14T04:59:43.196Z,1.18
2023-02-14T05:02:09.696Z,1.15
2023-02-14T05:04:37.308Z,1.15
2023-02-14T05:07:03.950Z,1.16
2023-02-14T05:09:30.400Z,1.14
2023-02-14T05:11:58.814Z,1.12
2023-02-14T05:14:28.463Z,1.10
2023-02-14T05:16:54.975Z,1.07
2023-02-14T05:19:21.388Z,1.04
2023-02-14T05:21:47.877Z,1.01
2023-02-14T05:24:14.284Z,1.07
2023-02-14T05:26:42.759Z,1.04
2023-02-14T05:29:09.219Z,1.06
2023-02-14T05:32:10.804Z,1.08
2023-02-14T05:34:37.268Z,1.08
2023-02-14T05:37:03.711Z,1.05
2023-02-14T05:39:30.093Z,1.04
2023-02-14T05:42:10.731Z,1.05
2023-02-14T05:44:37.094Z,1.04
2023-02-14T05:47:03.795Z,1.02
2023-02-14T05:49:30.168Z,1.02
2023-02-14T05:52:00.841Z,1.03
2023-02-14T05:54:27.301Z,1.01
2023-02-14T05:56:59.955Z,1.01
2023-02-14T05:59:33.551Z,1.03
2023-02-14T06:02:00.024Z,1.02
2023-02-14T06:04:27.501Z,1.01
2023-02-14T06:06:53.925Z,1.00
2023-02-14T06:09:20.330Z,1.01
2023-02-14T06:11:46.807Z,1.01
2023-02-14T06:14:13.310Z,1.00
2023-02-14T06:16:39.955Z,0.97
2023-02-14T06:19:06.452Z,0.95
2023-02-14T06:21:32.882Z,0.95
2023-02-14T06:23:59.254Z,0.90
2023-02-14T06:26:27.898Z,0.87
2023-02-14T06:28:55.570Z,0.90
2023-02-14T06:31:22.543Z,0.91
2023-02-14T06:33:58.403Z,0.89
2023-02-14T06:36:28.072Z,0.90
2023-02-14T06:38:56.609Z,0.92
2023-02-14T06:41:33.987Z,0.93
2023-02-14T06:44:00.382Z,0.95
2023-02-14T06:46:26.924Z,0.94
2023-02-14T06:48:57.447Z,0.92
2023-02-14T06:51:32.159Z,0.91
2023-02-14T06:53:58.598Z,0.89
2023-02-14T06:56:24.976Z,0.90
2023-02-14T06:58:51.371Z,0.89
2023-02-14T07:01:17.873Z,0.88
2023-02-14T07:03:58.614Z,0.88
2023-02-14T07:06:36.672Z,0.87
2023-02-14T07:09:09.523Z,0.91
2023-02-14T07:11:39.047Z,0.88
2023-02-14T07:14:05.457Z,0.91
2023-02-14T07:16:31.975Z,0.92
2023-02-14T07:18:58.443Z,0.93
2023-02-14T07:21:24.848Z,0.93
2023-02-14T07:23:51.290Z,0.94
2023-02-14T07:26:18.309Z,0.94
2023-02-14T07:28:49.179Z,0.93
2023-02-14T07:31:17.115Z,0.89
2023-02-14T07:33:44.001Z,0.88
2023-02-14T07:36:10.570Z,0.86
2023-02-14T07:38:37.228Z,0.87
2023-02-14T07:41:04.349Z,0.88
2023-02-14T07:43:30.907Z,0.93
2023-02-14T07:45:57.397Z,0.96
2023-02-14T07:48:25.218Z,1.04
2023-02-14T07:50:51.692Z,1.10
2023-02-14T07:53:18.194Z,1.14
2023-02-14T07:55:49.272Z,1.17
2023-02-14T07:58:15.619Z,1.24
2023-02-14T08:00:42.278Z,1.32
2023-02-14T08:03:08.855Z,1.39
2023-02-14T08:05:36.043Z,1.43
2023-02-14T08:08:02.486Z,1.49
2023-02-14T08:10:28.861Z,1.57
2023-02-14T08:13:01.453Z,1.61
2023-02-14T08:15:51.154Z,1.68
2023-02-14T08:18:18.805Z,1.77
2023-02-14T08:20:46.625Z,1.85
2023-02-14T08:23:13.160Z,1.95
2023-02-14T08:25:39.843Z,2.08
2023-02-14T08:28:06.901Z,2.20
2023-02-14T08:30:37.675Z,2.27
2023-02-14T08:33:05.266Z,2.34
2023-02-14T08:35:31.716Z,2.47
2023-02-14T08:37:58.316Z,2.60
2023-02-14T08:40:37.091Z,2.80
2023-02-14T08:43:07.443Z,2.94
2023-02-14T08:45:34.227Z,3.08
2023-02-14T08:48:06.278Z,3.23
2023-02-14T08:50:33.197Z,3.39
2023-02-14T08:52:59.665Z,3.47
2023-02-14T08:55:27.607Z,3.66
2023-02-14T08:57:58.096Z,3.88
2023-02-14T09:00:24.762Z,4.17
2023-02-14T09:02:52.593Z,4.50
2023-02-14T09:05:20.922Z,4.83
2023-02-14T09:07:47.327Z,5.07
2023-02-14T09:10:13.738Z,5.10
2023-02-14T09:12:41.863Z,5.17
2023-02-14T09:15:09.658Z,5.36
2023-02-14T09:17:37.340Z,5.47
2023-02-14T09:20:08.431Z,5.54
2023-02-14T09:22:34.874Z,5.68
2023-02-14T09:25:01.469Z,5.78
2023-02-14T09:27:28.237Z,5.86
2023-02-14T09:29:54.642Z,5.93
2023-02-14T09:32:21.198Z,5.97
2023-02-14T09:35:06.209Z,6.02
2023-02-14T09:37:51.126Z,6.09
2023-02-14T09:40:20.067Z,6.13
2023-02-14T09:43:16.800Z,6.21
2023-02-14T09:45:50.473Z,6.27
2023-02-14T09:48:33.897Z,6.32
2023-02-14T09:51:05.335Z,6.36
2023-02-14T09:53:39.420Z,6.41
2023-02-14T09:56:16.804Z,6.44
2023-02-14T09:59:27.415Z,6.48
2023-02-14T10:02:09.370Z,6.53
2023-02-14T10:04:58.725Z,6.56
2023-02-14T10:07:50.269Z,6.61
2023-02-14T10:10:25.433Z,6.70
2023-02-14T10:12:59.498Z,6.74
2023-02-14T10:15:30.427Z,6.77
2023-02-14T10:18:02.755Z,6.82
2023-02-14T10:20:34.948Z,6.87
2023-02-14T10:23:27.880Z,6.92
2023-02-14T10:26:01.030Z,6.97
2023-02-14T10:28:35.448Z,7.03
2023-02-14T10:31:15.507Z,7.13
2023-02-14T10:33:45.055Z,7.17
2023-02-14T10:36:33.172Z,7.24
2023-02-14T10:39:50.360Z,7.32
2023-02-14T10:42:22.815Z,7.39
2023-02-14T10:45:04.703Z,7.50
2023-02-14T10:47:46.896Z,7.59
2023-02-14T10:50:24.469Z,7.65
2023-02-14T10:53:01.271Z,7.71
2023-02-14T10:55:56.969Z,7.81
2023-02-14T10:58:26.613Z,7.91
2023-02-14T11:01:10.037Z,7.98
2023-02-14T11:03:43.851Z,8.08
2023-02-14T11:06:10.972Z,8.18
2023-02-14T11:08:40.253Z,8.33
2023-02-14T11:11:15.635Z,8.45
2023-02-14T11:13:42.567Z,8.53
2023-02-14T11:16:12.634Z,8.66
2023-02-14T11:18:41.010Z,8.79
2023-02-14T11:21:11.135Z,8.89
2023-02-14T11:23:39.390Z,8.99
2023-02-14T11:26:15.474Z,9.05
2023-02-14T11:29:12.814Z,9.12
2023-02-14T11:31:41.876Z,9.19
2023-02-14T11:34:34.018Z,9.21
2023-02-14T11:37:00.722Z,9.27
2023-02-14T11:39:34.732Z,9.30
2023-02-14T11:42:04.540Z,9.27
2023-02-14T11:44:34.100Z,9.24
2023-02-14T11:47:41.395Z,9.31
2023-02-14T11:50:25.925Z,9.41
2023-02-14T11:52:55.285Z,9.47
2023-02-14T11:55:28.544Z,9.48
2023-02-14T11:57:56.518Z,9.50
2023-02-14T12:00:27.021Z,9.52
2023-02-14T12:02:54.099Z,9.53
2023-02-14T12:05:46.972Z,9.61
2023-02-14T12:08:13.537Z,9.70
2023-02-14T12:10:42.064Z,9.81
2023-02-14T12:13:08.461Z,9.81
2023-02-14T12:15:38.119Z,9.85
2023-02-14T12:18:16.703Z,9.94
2023-02-14T12:20:55.525Z,10.05
2023-02-14T12:23:45.244Z,10.10
2023-02-14T12:26:27.727Z,10.30
2023-02-14T12:29:17.793Z,10.65
2023-02-14T12:31:46.579Z,10.76
2023-02-14T12:34:14.691Z,10.72
2023-02-14T12:37:11.893Z,10.58
2023-02-14T12:39:59.976Z,10.52
2023-02-14T12:42:44.779Z,10.45
2023-02-14T12:45:30.823Z,10.46
2023-02-14T12:48:22.773Z,10.41
2023-02-14T12:51:04.719Z,10.46
2023-02-14T12:54:00.659Z,10.48
2023-02-14T12:56:49.926Z,10.46
2023-02-14T12:59:43.690Z,10.45
2023-02-14T13:02:29.007Z,10.42
2023-02-14T13:05:20.554Z,10.41
2023-02-14T13:08:03.738Z,10.40
2023-02-14T13:10:55.920Z,10.56
2023-02-14T13:13:33.450Z,10.55
2023-02-14T13:16:23.830Z,10.55
2023-02-14T13:19:19.438Z,10.57
2023-02-14T13:21:47.996Z,10.61
2023-02-14T13:24:28.857Z,10.57
2023-02-14T13:27:01.951Z,10.56
2023-02-14T13:29:36.781Z,10.58
2023-02-14T13:32:04.547Z,10.59
2023-02-14T13:34:39.174Z,10.56
2023-02-14T13:37:11.452Z,10.52
2023-02-14T13:39:43.113Z,10.54
2023-02-14T13:42:10.746Z,10.53
2023-02-14T13:44:48.989Z,10.49
2023-02-14T13:47:24.177Z,10.51
2023-02-14T13:50:00.272Z,10.58
2023-02-14T13:52:46.929Z,10.59
2023-02-14T13:55:20.604Z,10.62
2023-02-14T13:58:00.416Z,10.63
2023-02-14T14:00:46.977Z,10.66
2023-02-14T14:03:28.954Z,10.75
2023-02-14T14:06:06.981Z,10.92
2023-02-14T14:08:56.140Z,11.01
2023-02-14T14:11:22.476Z,11.18
2023-02-14T14:13:55.219Z,11.38
2023-02-14T14:16:27.963Z,11.50
2023-02-14T14:19:09.308Z,11.63
2023-02-14T14:21:41.694Z,11.85
2023-02-14T14:24:33.084Z,12.26
2023-02-14T14:27:22.656Z,13.33
2023-02-14T14:30:18.433Z,14.35
2023-02-14T14:32:45.455Z,15.28
2023-02-14T14:35:23.855Z,14.96
2023-02-14T14:37:55.823Z,14.22
2023-02-14T14:40:29.643Z,13.62
2023-02-14T14:43:01.771Z,12.95
2023-02-14T14:45:31.484Z,12.51
2023-02-14T14:48:00.405Z,12.19
2023-02-14T14:50:33.151Z,12.01
2023-02-14T14:53:25.181Z,12.25
2023-02-14T14:55:52.375Z,12.20
2023-02-14T14:58:36.591Z,11.96
2023-02-14T15:01:04.875Z,11.83
2023-02-14T15:03:31.817Z,11.62
2023-02-14T15:06:14.751Z,11.51
2023-02-14T15:08:41.215Z,11.55
2023-02-14T15:11:10.968Z,11.56
2023-02-14T15:13:53.875Z,11.59
2023-02-14T15:16:28.020Z,11.48
2023-02-14T15:18:59.478Z,11.28
2023-02-14T15:21:26.543Z,11.07
2023-02-14T15:23:54.045Z,10.96
2023-02-14T15:26:32.910Z,10.86
2023-02-14T15:29:01.809Z,10.79
2023-02-14T15:31:32.850Z,10.71
2023-02-14T15:34:01.379Z,10.66
2023-02-14T15:36:28.444Z,10.59
2023-02-14T15:38:57.315Z,10.52
2023-02-14T15:41:25.045Z,10.50
2023-02-14T15:43:54.009Z,10.45
2023-02-14T15:46:39.200Z,10.43
2023-02-14T15:49:09.293Z,10.40
2023-02-14T15:51:36.507Z,10.36
2023-02-14T15:54:17.711Z,10.30
2023-02-14T15:56:48.994Z,10.24
2023-02-14T15:59:22.470Z,10.20
2023-02-14T16:02:30.026Z,10.17
2023-02-14T16:05:04.279Z,10.11
2023-02-14T16:07:30.664Z,10.07
2023-02-14T16:10:29.560Z,10.00
2023-02-14T16:12:59.257Z,9.94
2023-02-14T16:15:29.076Z,9.83
2023-02-14T16:17:55.867Z,9.76
2023-02-14T16:20:39.887Z,9.65
2023-02-14T16:23:27.809Z,9.53
2023-02-14T16:25:57.456Z,9.42
2023-02-14T16:28:23.922Z,9.38
2023-02-14T16:30:56.212Z,9.28
2023-02-14T16:33:26.864Z,9.18
2023-02-14T16:35:54.515Z,9.13
2023-02-14T16:38:21.803Z,9.05
2023-02-14T16:40:51.096Z,8.97
2023-02-14T16:43:19.276Z,8.92
2023-02-14T16:45:46.444Z,8.81
2023-02-14T16:48:15.745Z,8.74
2023-02-14T16:50:43.094Z,8.59
2023-02-14T16:53:27.967Z,8.45
2023-02-14T16:55:56.887Z,8.32
2023-02-14T16:58:30.013Z,8.23
2023-02-14T17:00:58.595Z,8.14
2023-02-14T17:03:25.271Z,8.07
2023-02-14T17:05:51.917Z,7.94
2023-02-14T17:08:18.710Z,7.87
2023-02-14T17:10:48.552Z,7.78
2023-02-14T17:13:19.556Z,7.68
2023-02-14T17:15:46.001Z,7.60
2023-02-14T17:18:15.468Z,7.52
2023-02-14T17:20:42.017Z,7.46
2023-02-14T17:23:08.932Z,7.36
2023-02-14T17:25:35.522Z,7.28
2023-02-14T17:28:01.939Z,7.20
2023-02-14T17:30:28.545Z,7.13
2023-02-14T17:32:55.042Z,7.03
2023-02-14T17:35:21.595Z,6.99
2023-02-14T17:37:48.140Z,6.96
2023-02-14T17:40:14.987Z,6.89
2023-02-14T17:42:41.836Z,6.82
2023-02-14T17:45:11.747Z,6.77
2023-02-14T17:47:39.690Z,6.70
2023-02-14T17:50:06.850Z,6.67
2023-02-14T17:52:33.319Z,6.64
2023-02-14T17:55:00.107Z,6.60
2023-02-14T17:57:26.572Z,6.54
2023-02-14T17:59:53.549Z,6.52
2023-02-14T18:02:20.081Z,6.47
2023-02-14T18:04:48.254Z,6.41
2023-02-14T18:07:14.741Z,6.37
2023-02-14T18:09:41.170Z,6.31
2023-02-14T18:12:09.349Z,6.28
2023-02-14T18:14:37.568Z,6.27
2023-02-14T18:17:04.449Z,6.20
2023-02-14T18:19:30.852Z,6.13
2023-02-14T18:21:57.350Z,6.09
2023-02-14T18:24:23.861Z,6.06
2023-02-14T18:26:50.269Z,6.04
2023-02-14T18:29:22.756Z,6.02
2023-02-14T18:32:04.784Z,5.96
2023-02-14T18:34:54.791Z,5.87
2023-02-14T18:37:21.330Z,5.82
2023-02-14T18:39:49.797Z,5.80
2023-02-14T18:42:16.573Z,5.78
2023-02-14T18:44:52.148Z,5.72
2023-02-14T18:47:18.638Z,5.67
2023-02-14T18:49:46.186Z,5.59
2023-02-14T18:52:14.066Z,5.60
2023-02-14T18:54:40.592Z,5.56
2023-02-14T18:57:08.212Z,5.51
2023-02-14T18:59:43.129Z,5.52
2023-02-14T19:02:14.076Z,5.49
2023-02-14T19:04:44.790Z,5.44
2023-02-14T19:07:11.482Z,5.41
2023-02-14T19:09:40.089Z,5.37
2023-02-14T19:12:07.196Z,5.32
2023-02-14T19:14:33.661Z,5.28
2023-02-14T19:17:00.003Z,5.26
2023-02-14T19:19:26.397Z,5.24
2023-02-14T19:21:53.197Z,5.21
2023-02-14T19:24:20.227Z,5.19
2023-02-14T19:26:47.066Z,5.15
2023-02-14T19:29:16.107Z,5.12
2023-02-14T19:31:45.049Z,5.06
2023-02-14T19:34:20.109Z,5.03
2023-02-14T19:36:47.971Z,4.99
2023-02-14T19:39:14.835Z,4.98
2023-02-14T19:41:41.845Z,4.92
2023-02-14T19:44:10.484Z,4.85
2023-02-14T19:46:38.247Z,4.81
2023-02-14T19:49:04.699Z,4.80
2023-02-14T19:51:34.114Z,4.76
2023-02-14T19:54:02.236Z,4.72
2023-02-14T19:56:31.364Z,4.61
2023-02-14T19:58:58.068Z,4.54
2023-02-14T20:01:33.590Z,4.55
2023-02-14T20:04:00.717Z,4.54
2023-02-14T20:06:29.194Z,4.50
2023-02-14T20:08:55.962Z,4.48
2023-02-14T20:11:29.848Z,4.51
2023-02-14T20:13:56.768Z,4.48
2023-02-14T20:16:24.617Z,4.45
2023-02-14T20:18:51.675Z,4.44
2023-02-14T20:21:19.437Z,4.41
2023-02-14T20:23:45.788Z,4.37
2023-02-14T20:26:14.779Z,4.36
2023-02-14T20:28:43.206Z,4.34
2023-02-14T20:31:12.102Z,4.25
2023-02-14T20:33:38.945Z,4.18
2023-02-14T20:36:06.854Z,4.14
2023-02-14T20:38:34.334Z,4.13
2023-02-14T20:41:05.783Z,4.14
2023-02-14T20:43:32.265Z,4.11
2023-02-14T20:46:02.715Z,4.08
2023-02-14T20:48:35.553Z,4.06
2023-02-14T20:51:16.863Z,4.08
2023-02-14T20:54:19.520Z,4.03
2023-02-14T20:56:46.493Z,4.00
2023-02-14T20:59:24.334Z,3.96
2023-02-14T21:01:51.441Z,3.98
2023-02-14T21:04:18.996Z,3.95
2023-02-14T21:06:45.541Z,3.93
2023-02-14T21:09:12.031Z,3.87
2023-02-14T21:11:42.505Z,3.85
2023-02-14T21:14:11.814Z,3.83
2023-02-14T21:16:39.424Z,3.79
2023-02-14T21:19:09.968Z,3.77
2023-02-14T21:21:38.869Z,3.74
2023-02-14T21:24:15.409Z,3.65
2023-02-14T21:26:42.707Z,3.65
2023-02-14T21:29:10.342Z,3.65
2023-02-14T21:31:43.905Z,3.62
2023-02-14T21:34:15.152Z,3.60
2023-02-14T21:36:41.930Z,3.57
2023-02-14T21:39:25.450Z,3.49
2023-02-14T21:41:51.820Z,3.51
2023-02-14T21:44:44.797Z,3.47
2023-02-14T21:47:11.287Z,3.43
2023-02-14T21:49:58.290Z,3.42
2023-02-14T21:52:53.559Z,3.41
2023-02-14T21:55:20.089Z,3.36
2023-02-14T21:57:46.575Z,3.35
2023-02-14T22:00:13.271Z,3.33
2023-02-14T22:02:51.110Z,3.32
2023-02-14T22:05:17.760Z,3.28
2023-02-14T22:07:45.139Z,3.24
2023-02-14T22:10:13.761Z,3.24
2023-02-14T22:12:44.325Z,3.16
2023-02-14T22:15:16.820Z,3.14
2023-02-14T22:17:43.302Z,3.14
2023-02-14T22:20:10.410Z,3.11
2023-02-14T22:22:36.846Z,3.07
2023-02-14T22:25:04.530Z,3.03
2023-02-14T22:27:32.026Z,3.02
2023-02-14T22:30:09.729Z,3.01
2023-02-14T22:32:38.206Z,3.00
2023-02-14T22:35:04.763Z,3.00
2023-02-14T22:37:38.175Z,2.92
2023-02-14T22:40:05.991Z,2.88
2023-02-14T22:42:33.489Z,2.88
2023-02-14T22:45:07.378Z,2.83
2023-02-14T22:47:33.778Z,2.76
2023-02-14T22:50:01.326Z,2.80
2023-02-14T22:52:27.911Z,2.79
2023-02-14T22:54:54.275Z,2.77
2023-02-14T22:57:21.806Z,2.74
2023-02-14T22:59:49.245Z,2.69
2023-02-14T23:02:15.881Z,2.69
2023-02-14T23:04:42.401Z,2.67
2023-02-14T23:07:13.273Z,2.66
2023-02-14T23:09:39.632Z,2.64
2023-02-14T23:12:26.085Z,2.59
2023-02-14T23:15:29.078Z,2.59
2023-02-14T23:18:14.388Z,2.49
2023-02-14T23:21:01.167Z,2.47
2023-02-14T23:23:33.438Z,2.51
2023-02-14T23:26:10.039Z,2.53
2023-02-14T23:28:36.551Z,2.51
2023-02-14T23:31:02.972Z,2.48
2023-02-14T23:33:29.399Z,2.47
2023-02-14T23:35:55.811Z,2.47
2023-02-14T23:38:27.394Z,2.46
2023-02-14T23:41:13.778Z,2.44
2023-02-14T23:43:42.176Z,2.42
2023-02-14T23:46:08.626Z,2.42
2023-02-14T23:48:38.239Z,2.42
2023-02-14T23:51:05.102Z,2.39
2023-02-14T23:53:31.500Z,2.37
2023-02-14T23:56:01.705Z,2.32
2023-02-14T23:58:33.381Z,2.34
